Terminal Aerodrome Forecast
Issued by NWS

Home | Current Version | Previous Version | Text Only | Print | Product List | Glossary On
Versions: 1 2 3 4 5 6 7 8 9 10 11 12
000
FTUS45 KABQ 041139
TAFSAF
TAF
KSAF 041139Z 0412/0512 01007KT P6SM BKN100
     FM042000 20012G22KT P6SM VCSH BKN080
      TEMPO 0422/0501 VRB20G30KT 6SM -TSRA BKN070CB
     FM050200 23011KT P6SM VCSH BKN060
     FM051000 35007KT P6SM VCSH BKN060=

USA.gov is the U.S. government's official web portal to all federal, state and local government web resources and services.